sensor_id;sensor_type;location;lat;lon;timestamp;temperature;humidity
23160;DHT22;11748;50.844;4.396;2023-03-21T00:02:13;13.00;99.90
23160;DHT22;11748;50.844;4.396;2023-03-21T00:04:39;13.00;99.90
23160;DHT22;11748;50.844;4.396;2023-03-21T00:07:05;13.00;99.90
23160;DHT22;11748;50.844;4.396;2023-03-21T00:09:30;13.00;99.90
23160;DHT22;11748;50.844;4.396;2023-03-21T00:11:56;12.90;99.90
23160;DHT22;11748;50.844;4.396;2023-03-21T00:14:26;13.00;99.90
23160;DHT22;11748;50.844;4.396;2023-03-21T00:16:55;13.00;99.90
23160;DHT22;11748;50.844;4.396;2023-03-21T00:19:22;13.00;99.90
23160;DHT22;11748;50.844;4.396;2023-03-21T00:21:52;13.00;99.90
23160;DHT22;11748;50.844;4.396;2023-03-21T00:24:20;12.90;99.90
23160;DHT22;11748;50.844;4.396;2023-03-21T00:26:48;12.90;99.90
23160;DHT22;11748;50.844;4.396;2023-03-21T00:29:13;12.90;99.90
23160;DHT22;11748;50.844;4.396;2023-03-21T00:31:39;12.90;99.90
23160;DHT22;11748;50.844;4.396;2023-03-21T00:34:05;12.90;99.90
23160;DHT22;11748;50.844;4.396;2023-03-21T00:36:32;12.90;99.90
23160;DHT22;11748;50.844;4.396;2023-03-21T00:39:12;12.90;99.90
23160;DHT22;11748;50.844;4.396;2023-03-21T00:41:47;12.90;99.90
23160;DHT22;11748;50.844;4.396;2023-03-21T00:44:21;12.90;99.90
23160;DHT22;11748;50.844;4.396;2023-03-21T00:46:48;12.90;99.90
23160;DHT22;11748;50.844;4.396;2023-03-21T00:49:20;12.80;99.90
23160;DHT22;11748;50.844;4.396;2023-03-21T00:51:57;12.90;99.90
23160;DHT22;11748;50.844;4.396;2023-03-21T00:54:36;12.90;99.90
23160;DHT22;11748;50.844;4.396;2023-03-21T00:57:05;12.80;99.90
23160;DHT22;11748;50.844;4.396;2023-03-21T00:59:31;12.80;99.90
23160;DHT22;11748;50.844;4.396;2023-03-21T01:01:58;12.80;99.90
23160;DHT22;11748;50.844;4.396;2023-03-21T01:04:27;12.80;99.90
23160;DHT22;11748;50.844;4.396;2023-03-21T01:06:53;12.80;99.90
23160;DHT22;11748;50.844;4.396;2023-03-21T01:09:21;12.90;99.90
23160;DHT22;11748;50.844;4.396;2023-03-21T01:11:50;12.90;99.90
23160;DHT22;11748;50.844;4.396;2023-03-21T01:14:18;12.90;99.90
23160;DHT22;11748;50.844;4.396;2023-03-21T01:16:44;12.90;99.90
23160;DHT22;11748;50.844;4.396;2023-03-21T01:19:13;12.90;99.90
23160;DHT22;11748;50.844;4.396;2023-03-21T01:21:40;12.90;99.90
23160;DHT22;11748;50.844;4.396;2023-03-21T01:24:06;12.90;99.90
23160;DHT22;11748;50.844;4.396;2023-03-21T01:26:32;12.90;99.90
23160;DHT22;11748;50.844;4.396;2023-03-21T01:28:58;12.90;99.90
23160;DHT22;11748;50.844;4.396;2023-03-21T01:31:24;12.90;99.90
23160;DHT22;11748;50.844;4.396;2023-03-21T01:33:50;12.90;99.90
23160;DHT22;11748;50.844;4.396;2023-03-21T01:36:19;12.90;99.90
23160;DHT22;11748;50.844;4.396;2023-03-21T01:38:46;12.90;99.90
23160;DHT22;11748;50.844;4.396;2023-03-21T01:41:28;13.00;99.90
23160;DHT22;11748;50.844;4.396;2023-03-21T01:43:54;13.00;99.90
23160;DHT22;11748;50.844;4.396;2023-03-21T01:49:03;13.00;99.90
23160;DHT22;11748;50.844;4.396;2023-03-21T01:51:35;12.90;99.90
23160;DHT22;11748;50.844;4.396;2023-03-21T01:54:04;12.90;99.90
23160;DHT22;11748;50.844;4.396;2023-03-21T01:56:34;12.90;99.90
23160;DHT22;11748;50.844;4.396;2023-03-21T01:59:07;13.00;99.90
23160;DHT22;11748;50.844;4.396;2023-03-21T02:01:34;13.00;99.90
23160;DHT22;11748;50.844;4.396;2023-03-21T02:04:03;13.00;99.90
23160;DHT22;11748;50.844;4.396;2023-03-21T02:06:48;13.10;99.90
23160;DHT22;11748;50.844;4.396;2023-03-21T02:09:18;13.10;99.90
23160;DHT22;11748;50.844;4.396;2023-03-21T02:11:45;13.00;99.90
23160;DHT22;11748;50.844;4.396;2023-03-21T02:14:16;13.10;99.90
23160;DHT22;11748;50.844;4.396;2023-03-21T02:25:12;13.10;99.90
23160;DHT22;11748;50.844;4.396;2023-03-21T02:31:04;13.10;99.90
23160;DHT22;11748;50.844;4.396;2023-03-21T02:33:45;13.20;99.90
23160;DHT22;11748;50.844;4.396;2023-03-21T02:36:21;13.10;99.90
23160;DHT22;11748;50.844;4.396;2023-03-21T02:42:15;13.10;99.90
23160;DHT22;11748;50.844;4.396;2023-03-21T02:45:05;13.10;99.90
23160;DHT22;11748;50.844;4.396;2023-03-21T02:47:35;13.10;99.90
23160;DHT22;11748;50.844;4.396;2023-03-21T02:52:41;12.90;99.90
23160;DHT22;11748;50.844;4.396;2023-03-21T02:55:13;13.00;99.90
23160;DHT22;11748;50.844;4.396;2023-03-21T02:57:42;13.00;99.90
23160;DHT22;11748;50.844;4.396;2023-03-21T03:00:11;13.00;99.90
23160;DHT22;11748;50.844;4.396;2023-03-21T03:02:38;13.10;99.90
23160;DHT22;11748;50.844;4.396;2023-03-21T03:05:29;13.10;99.90
23160;DHT22;11748;50.844;4.396;2023-03-21T03:16:31;13.10;99.90
23160;DHT22;11748;50.844;4.396;2023-03-21T03:19:03;13.10;99.90
23160;DHT22;11748;50.844;4.396;2023-03-21T03:21:39;13.20;99.90
23160;DHT22;11748;50.844;4.396;2023-03-21T03:27:05;13.20;99.90
23160;DHT22;11748;50.844;4.396;2023-03-21T03:29:34;13.20;99.90
23160;DHT22;11748;50.844;4.396;2023-03-21T03:32:07;13.30;99.90
23160;DHT22;11748;50.844;4.396;2023-03-21T03:34:39;13.30;99.90
23160;DHT22;11748;50.844;4.396;2023-03-21T03:37:14;13.20;99.90
23160;DHT22;11748;50.844;4.396;2023-03-21T03:39:46;13.20;99.90
23160;DHT22;11748;50.844;4.396;2023-03-21T03:42:17;13.10;99.90
23160;DHT22;11748;50.844;4.396;2023-03-21T03:44:43;13.20;99.90
23160;DHT22;11748;50.844;4.396;2023-03-21T03:47:12;13.20;99.90
23160;DHT22;11748;50.844;4.396;2023-03-21T03:49:47;13.20;99.90
23160;DHT22;11748;50.844;4.396;2023-03-21T03:52:31;13.20;99.90
23160;DHT22;11748;50.844;4.396;2023-03-21T03:54:59;13.20;99.90
23160;DHT22;11748;50.844;4.396;2023-03-21T03:57:25;13.20;99.90
23160;DHT22;11748;50.844;4.396;2023-03-21T03:59:52;13.20;99.90
23160;DHT22;11748;50.844;4.396;2023-03-21T04:02:18;13.20;99.90
23160;DHT22;11748;50.844;4.396;2023-03-21T04:04:45;13.20;99.90
23160;DHT22;11748;50.844;4.396;2023-03-21T04:07:11;13.20;99.90
23160;DHT22;11748;50.844;4.396;2023-03-21T04:09:37;13.20;99.90
23160;DHT22;11748;50.844;4.396;2023-03-21T04:12:03;13.20;99.90
23160;DHT22;11748;50.844;4.396;2023-03-21T04:14:29;13.20;99.90
23160;DHT22;11748;50.844;4.396;2023-03-21T04:16:55;13.30;99.90
23160;DHT22;11748;50.844;4.396;2023-03-21T04:19:21;13.30;99.90
23160;DHT22;11748;50.844;4.396;2023-03-21T04:21:47;13.30;99.90
23160;DHT22;11748;50.844;4.396;2023-03-21T04:24:13;13.20;99.90
23160;DHT22;11748;50.844;4.396;2023-03-21T04:26:39;13.20;99.90
23160;DHT22;11748;50.844;4.396;2023-03-21T04:29:05;13.20;99.90
23160;DHT22;11748;50.844;4.396;2023-03-21T04:31:32;13.20;99.90
23160;DHT22;11748;50.844;4.396;2023-03-21T04:34:00;13.20;99.90
23160;DHT22;11748;50.844;4.396;2023-03-21T04:36:26;13.20;99.90
23160;DHT22;11748;50.844;4.396;2023-03-21T04:38:55;13.20;99.90
23160;DHT22;11748;50.844;4.396;2023-03-21T04:41:28;13.20;99.90
23160;DHT22;11748;50.844;4.396;2023-03-21T04:43:54;13.20;99.90
23160;DHT22;11748;50.844;4.396;2023-03-21T04:46:20;13.20;99.90
23160;DHT22;11748;50.844;4.396;2023-03-21T04:48:46;13.20;99.90
23160;DHT22;11748;50.844;4.396;2023-03-21T04:51:14;13.20;99.90
23160;DHT22;11748;50.844;4.396;2023-03-21T04:53:40;13.20;99.90
23160;DHT22;11748;50.844;4.396;2023-03-21T04:56:11;13.20;99.90
23160;DHT22;11748;50.844;4.396;2023-03-21T04:58:37;13.00;99.90
23160;DHT22;11748;50.844;4.396;2023-03-21T05:01:05;12.90;99.90
23160;DHT22;11748;50.844;4.396;2023-03-21T05:03:31;13.00;99.90
23160;DHT22;11748;50.844;4.396;2023-03-21T05:06:02;13.10;99.90
23160;DHT22;11748;50.844;4.396;2023-03-21T05:08:28;13.20;99.90
23160;DHT22;11748;50.844;4.396;2023-03-21T05:10:54;13.30;99.90
23160;DHT22;11748;50.844;4.396;2023-03-21T05:13:19;13.20;99.90
23160;DHT22;11748;50.844;4.396;2023-03-21T05:15:45;13.30;99.90
23160;DHT22;11748;50.844;4.396;2023-03-21T05:18:11;13.30;99.90
23160;DHT22;11748;50.844;4.396;2023-03-21T05:20:38;13.20;99.90
23160;DHT22;11748;50.844;4.396;2023-03-21T05:23:09;13.20;99.90
23160;DHT22;11748;50.844;4.396;2023-03-21T05:25:36;13.20;99.90
23160;DHT22;11748;50.844;4.396;2023-03-21T05:28:04;13.20;99.90
23160;DHT22;11748;50.844;4.396;2023-03-21T05:30:30;13.20;99.90
23160;DHT22;11748;50.844;4.396;2023-03-21T05:32:56;13.20;99.90
23160;DHT22;11748;50.844;4.396;2023-03-21T05:35:22;13.20;99.90
23160;DHT22;11748;50.844;4.396;2023-03-21T05:37:47;13.20;99.90
23160;DHT22;11748;50.844;4.396;2023-03-21T05:40:13;13.20;99.90
23160;DHT22;11748;50.844;4.396;2023-03-21T05:42:39;13.20;99.90
23160;DHT22;11748;50.844;4.396;2023-03-21T05:45:06;13.20;99.90
23160;DHT22;11748;50.844;4.396;2023-03-21T05:47:32;13.20;99.90
23160;DHT22;11748;50.844;4.396;2023-03-21T05:49:58;13.30;99.90
23160;DHT22;11748;50.844;4.396;2023-03-21T05:52:24;13.30;99.90
23160;DHT22;11748;50.844;4.396;2023-03-21T05:54:50;13.10;99.90
23160;DHT22;11748;50.844;4.396;2023-03-21T05:57:16;13.10;99.90
23160;DHT22;11748;50.844;4.396;2023-03-21T05:59:43;13.00;99.90
23160;DHT22;11748;50.844;4.396;2023-03-21T06:02:09;13.10;99.90
23160;DHT22;11748;50.844;4.396;2023-03-21T06:04:36;13.10;99.90
23160;DHT22;11748;50.844;4.396;2023-03-21T06:07:02;13.10;99.90
23160;DHT22;11748;50.844;4.396;2023-03-21T06:09:28;13.10;99.90
23160;DHT22;11748;50.844;4.396;2023-03-21T06:11:55;12.90;99.90
23160;DHT22;11748;50.844;4.396;2023-03-21T06:14:22;12.50;99.90
23160;DHT22;11748;50.844;4.396;2023-03-21T06:16:48;12.40;99.90
23160;DHT22;11748;50.844;4.396;2023-03-21T06:19:14;12.40;99.90
23160;DHT22;11748;50.844;4.396;2023-03-21T06:21:40;12.30;99.90
23160;DHT22;11748;50.844;4.396;2023-03-21T06:24:09;12.30;99.90
23160;DHT22;11748;50.844;4.396;2023-03-21T06:26:35;12.40;99.90
23160;DHT22;11748;50.844;4.396;2023-03-21T06:29:03;12.60;99.90
23160;DHT22;11748;50.844;4.396;2023-03-21T06:31:29;12.60;99.90
23160;DHT22;11748;50.844;4.396;2023-03-21T06:33:55;12.70;99.90
23160;DHT22;11748;50.844;4.396;2023-03-21T06:36:21;12.70;99.90
23160;DHT22;11748;50.844;4.396;2023-03-21T06:38:47;12.70;99.90
23160;DHT22;11748;50.844;4.396;2023-03-21T06:41:13;12.70;99.90
23160;DHT22;11748;50.844;4.396;2023-03-21T06:43:40;12.70;99.90
23160;DHT22;11748;50.844;4.396;2023-03-21T06:46:06;12.70;99.90
23160;DHT22;11748;50.844;4.396;2023-03-21T06:48:32;12.80;99.90
23160;DHT22;11748;50.844;4.396;2023-03-21T06:50:58;12.80;99.90
23160;DHT22;11748;50.844;4.396;2023-03-21T06:53:24;12.80;99.90
23160;DHT22;11748;50.844;4.396;2023-03-21T06:55:53;12.90;99.90
23160;DHT22;11748;50.844;4.396;2023-03-21T06:58:19;12.90;99.90
23160;DHT22;11748;50.844;4.396;2023-03-21T07:00:46;12.90;99.90
23160;DHT22;11748;50.844;4.396;2023-03-21T07:03:12;13.00;99.90
23160;DHT22;11748;50.844;4.396;2023-03-21T07:05:40;13.00;99.90
23160;DHT22;11748;50.844;4.396;2023-03-21T07:08:06;13.10;99.90
23160;DHT22;11748;50.844;4.396;2023-03-21T07:10:39;13.00;99.90
23160;DHT22;11748;50.844;4.396;2023-03-21T07:13:06;13.10;99.90
23160;DHT22;11748;50.844;4.396;2023-03-21T07:15:32;13.10;99.90
23160;DHT22;11748;50.844;4.396;2023-03-21T07:18:08;13.20;99.90
23160;DHT22;11748;50.844;4.396;2023-03-21T07:20:35;13.20;99.90
23160;DHT22;11748;50.844;4.396;2023-03-21T07:23:02;13.10;99.90
23160;DHT22;11748;50.844;4.396;2023-03-21T07:25:28;13.10;99.90
23160;DHT22;11748;50.844;4.396;2023-03-21T07:27:54;13.10;99.90
23160;DHT22;11748;50.844;4.396;2023-03-21T07:30:21;13.20;99.90
23160;DHT22;11748;50.844;4.396;2023-03-21T07:32:46;13.20;99.90
23160;DHT22;11748;50.844;4.396;2023-03-21T07:35:15;13.20;99.90
23160;DHT22;11748;50.844;4.396;2023-03-21T07:37:41;13.30;99.90
23160;DHT22;11748;50.844;4.396;2023-03-21T07:40:08;13.30;99.90
23160;DHT22;11748;50.844;4.396;2023-03-21T07:42:38;13.40;99.90
23160;DHT22;11748;50.844;4.396;2023-03-21T07:45:04;13.60;99.90
23160;DHT22;11748;50.844;4.396;2023-03-21T07:47:30;13.60;99.90
23160;DHT22;11748;50.844;4.396;2023-03-21T07:49:57;13.60;99.90
23160;DHT22;11748;50.844;4.396;2023-03-21T07:52:23;13.70;99.90
23160;DHT22;11748;50.844;4.396;2023-03-21T07:54:49;13.60;99.90
23160;DHT22;11748;50.844;4.396;2023-03-21T07:57:14;13.60;99.90
23160;DHT22;11748;50.844;4.396;2023-03-21T07:59:42;13.60;99.90
23160;DHT22;11748;50.844;4.396;2023-03-21T08:02:16;13.60;99.90
23160;DHT22;11748;50.844;4.396;2023-03-21T08:04:42;13.50;99.90
23160;DHT22;11748;50.844;4.396;2023-03-21T08:07:09;13.50;99.90
23160;DHT22;11748;50.844;4.396;2023-03-21T08:09:35;13.50;99.90
23160;DHT22;11748;50.844;4.396;2023-03-21T08:12:02;13.50;99.90
23160;DHT22;11748;50.844;4.396;2023-03-21T08:14:28;13.50;99.90
23160;DHT22;11748;50.844;4.396;2023-03-21T08:16:54;13.50;99.90
23160;DHT22;11748;50.844;4.396;2023-03-21T08:19:19;13.50;99.90
23160;DHT22;11748;50.844;4.396;2023-03-21T08:21:47;13.50;99.90
23160;DHT22;11748;50.844;4.396;2023-03-21T08:24:14;13.50;99.90
23160;DHT22;11748;50.844;4.396;2023-03-21T08:26:41;13.60;99.90
23160;DHT22;11748;50.844;4.396;2023-03-21T08:29:08;13.60;99.90
23160;DHT22;11748;50.844;4.396;2023-03-21T08:31:35;13.60;99.90
23160;DHT22;11748;50.844;4.396;2023-03-21T08:34:01;13.70;99.90
23160;DHT22;11748;50.844;4.396;2023-03-21T08:36:27;13.70;99.90
23160;DHT22;11748;50.844;4.396;2023-03-21T08:38:52;13.80;99.90
23160;DHT22;11748;50.844;4.396;2023-03-21T08:41:21;13.70;99.90
23160;DHT22;11748;50.844;4.396;2023-03-21T08:43:49;13.70;99.90
23160;DHT22;11748;50.844;4.396;2023-03-21T08:46:15;13.70;99.90
23160;DHT22;11748;50.844;4.396;2023-03-21T08:48:41;13.70;99.90
23160;DHT22;11748;50.844;4.396;2023-03-21T08:51:07;13.80;99.90
23160;DHT22;11748;50.844;4.396;2023-03-21T08:53:33;13.90;99.90
23160;DHT22;11748;50.844;4.396;2023-03-21T08:55:58;13.90;99.90
23160;DHT22;11748;50.844;4.396;2023-03-21T08:58:24;14.10;99.90
23160;DHT22;11748;50.844;4.396;2023-03-21T09:00:50;14.20;99.90
23160;DHT22;11748;50.844;4.396;2023-03-21T09:03:16;14.40;99.90
23160;DHT22;11748;50.844;4.396;2023-03-21T09:05:42;14.40;99.90
23160;DHT22;11748;50.844;4.396;2023-03-21T09:08:10;14.50;99.90
23160;DHT22;11748;50.844;4.396;2023-03-21T09:10:38;14.60;99.90
23160;DHT22;11748;50.844;4.396;2023-03-21T09:13:03;14.70;99.90
23160;DHT22;11748;50.844;4.396;2023-03-21T09:15:29;14.80;99.90
23160;DHT22;11748;50.844;4.396;2023-03-21T09:17:57;14.90;99.90
23160;DHT22;11748;50.844;4.396;2023-03-21T09:20:37;14.90;99.90
23160;DHT22;11748;50.844;4.396;2023-03-21T09:23:03;14.90;99.90
23160;DHT22;11748;50.844;4.396;2023-03-21T09:25:28;14.80;99.90
23160;DHT22;11748;50.844;4.396;2023-03-21T09:27:55;14.70;99.90
23160;DHT22;11748;50.844;4.396;2023-03-21T09:30:21;14.40;99.90
23160;DHT22;11748;50.844;4.396;2023-03-21T09:32:47;14.40;99.90
23160;DHT22;11748;50.844;4.396;2023-03-21T09:35:19;14.30;99.90
23160;DHT22;11748;50.844;4.396;2023-03-21T09:37:46;14.30;99.90
23160;DHT22;11748;50.844;4.396;2023-03-21T09:40:26;14.20;99.90
23160;DHT22;11748;50.844;4.396;2023-03-21T09:46:27;14.60;99.90
23160;DHT22;11748;50.844;4.396;2023-03-21T09:51:11;14.90;99.90
23160;DHT22;11748;50.844;4.396;2023-03-21T09:53:41;15.00;99.90
23160;DHT22;11748;50.844;4.396;2023-03-21T09:56:10;15.00;99.90
23160;DHT22;11748;50.844;4.396;2023-03-21T09:58:47;15.10;99.90
23160;DHT22;11748;50.844;4.396;2023-03-21T10:01:28;15.20;99.90
23160;DHT22;11748;50.844;4.396;2023-03-21T10:04:03;15.40;99.90
23160;DHT22;11748;50.844;4.396;2023-03-21T10:06:30;15.40;99.90
23160;DHT22;11748;50.844;4.396;2023-03-21T10:09:02;15.30;99.90
23160;DHT22;11748;50.844;4.396;2023-03-21T10:11:42;15.30;99.90
23160;DHT22;11748;50.844;4.396;2023-03-21T10:14:33;15.40;99.90
23160;DHT22;11748;50.844;4.396;2023-03-21T10:19:50;15.20;99.90
23160;DHT22;11748;50.844;4.396;2023-03-21T10:22:20;15.40;99.90
23160;DHT22;11748;50.844;4.396;2023-03-21T10:24:46;15.50;99.90
23160;DHT22;11748;50.844;4.396;2023-03-21T10:27:12;15.60;99.90
23160;DHT22;11748;50.844;4.396;2023-03-21T10:29:43;15.70;99.90
23160;DHT22;11748;50.844;4.396;2023-03-21T10:32:13;15.80;99.90
23160;DHT22;11748;50.844;4.396;2023-03-21T10:34:43;15.90;99.90
23160;DHT22;11748;50.844;4.396;2023-03-21T10:37:12;16.00;99.90
23160;DHT22;11748;50.844;4.396;2023-03-21T10:39:44;15.70;99.90
23160;DHT22;11748;50.844;4.396;2023-03-21T10:42:21;15.90;99.90
23160;DHT22;11748;50.844;4.396;2023-03-21T10:44:50;16.10;99.90
23160;DHT22;11748;50.844;4.396;2023-03-21T10:47:33;16.00;99.90
23160;DHT22;11748;50.844;4.396;2023-03-21T10:50:03;15.90;99.90
23160;DHT22;11748;50.844;4.396;2023-03-21T10:52:29;15.80;99.90
23160;DHT22;11748;50.844;4.396;2023-03-21T10:55:14;15.80;99.90
23160;DHT22;11748;50.844;4.396;2023-03-21T10:57:41;15.70;99.90
23160;DHT22;11748;50.844;4.396;2023-03-21T11:00:09;15.30;99.90
23160;DHT22;11748;50.844;4.396;2023-03-21T11:02:47;15.00;99.90
23160;DHT22;11748;50.844;4.396;2023-03-21T11:05:40;15.00;99.90
23160;DHT22;11748;50.844;4.396;2023-03-21T11:08:17;15.00;99.90
23160;DHT22;11748;50.844;4.396;2023-03-21T11:11:02;15.00;99.90
23160;DHT22;11748;50.844;4.396;2023-03-21T11:13:40;15.30;99.90
23160;DHT22;11748;50.844;4.396;2023-03-21T11:18:42;15.70;99.90
23160;DHT22;11748;50.844;4.396;2023-03-21T11:21:12;16.00;99.90
23160;DHT22;11748;50.844;4.396;2023-03-21T11:23:42;16.00;99.90
23160;DHT22;11748;50.844;4.396;2023-03-21T11:26:15;16.10;99.90
23160;DHT22;11748;50.844;4.396;2023-03-21T11:28:44;16.00;99.90
23160;DHT22;11748;50.844;4.396;2023-03-21T11:31:10;15.80;99.90
23160;DHT22;11748;50.844;4.396;2023-03-21T11:33:43;15.40;99.90
23160;DHT22;11748;50.844;4.396;2023-03-21T11:38:48;15.20;99.90
23160;DHT22;11748;50.844;4.396;2023-03-21T11:41:33;15.20;99.90
23160;DHT22;11748;50.844;4.396;2023-03-21T11:44:00;14.90;99.90
23160;DHT22;11748;50.844;4.396;2023-03-21T11:46:28;15.30;99.90
23160;DHT22;11748;50.844;4.396;2023-03-21T11:48:55;15.20;99.90
23160;DHT22;11748;50.844;4.396;2023-03-21T11:57:01;15.00;99.90
23160;DHT22;11748;50.844;4.396;2023-03-21T11:59:46;15.60;99.90
23160;DHT22;11748;50.844;4.396;2023-03-21T12:02:19;15.90;99.90
23160;DHT22;11748;50.844;4.396;2023-03-21T12:24:14;16.40;99.90
23160;DHT22;11748;50.844;4.396;2023-03-21T12:26:52;16.00;99.90
23160;DHT22;11748;50.844;4.396;2023-03-21T12:29:25;16.30;99.90
23160;DHT22;11748;50.844;4.396;2023-03-21T12:43:30;16.50;99.90
23160;DHT22;11748;50.844;4.396;2023-03-21T12:48:49;16.30;99.90
23160;DHT22;11748;50.844;4.396;2023-03-21T12:51:29;16.10;99.90
23160;DHT22;11748;50.844;4.396;2023-03-21T12:54:14;16.10;99.90
23160;DHT22;11748;50.844;4.396;2023-03-21T12:56:46;15.90;99.90
23160;DHT22;11748;50.844;4.396;2023-03-21T12:59:19;15.70;99.90
23160;DHT22;11748;50.844;4.396;2023-03-21T13:01:49;15.70;99.90
23160;DHT22;11748;50.844;4.396;2023-03-21T13:06:51;15.90;99.90
23160;DHT22;11748;50.844;4.396;2023-03-21T13:09:32;16.00;99.90
23160;DHT22;11748;50.844;4.396;2023-03-21T13:12:23;16.10;99.90
23160;DHT22;11748;50.844;4.396;2023-03-21T13:15:12;16.10;99.90
23160;DHT22;11748;50.844;4.396;2023-03-21T13:17:49;16.30;99.90
23160;DHT22;11748;50.844;4.396;2023-03-21T13:20:34;16.00;99.90
23160;DHT22;11748;50.844;4.396;2023-03-21T13:23:01;16.20;99.90
23160;DHT22;11748;50.844;4.396;2023-03-21T13:25:30;16.30;99.90
23160;DHT22;11748;50.844;4.396;2023-03-21T13:28:02;16.50;99.90
23160;DHT22;11748;50.844;4.396;2023-03-21T13:30:34;16.70;99.90
23160;DHT22;11748;50.844;4.396;2023-03-21T13:33:07;16.60;99.90
23160;DHT22;11748;50.844;4.396;2023-03-21T13:35:43;16.60;99.90
23160;DHT22;11748;50.844;4.396;2023-03-21T13:38:16;16.40;99.90
23160;DHT22;11748;50.844;4.396;2023-03-21T13:40:44;16.70;99.90
23160;DHT22;11748;50.844;4.396;2023-03-21T13:43:41;16.80;99.90
23160;DHT22;11748;50.844;4.396;2023-03-21T13:46:14;17.10;99.90
23160;DHT22;11748;50.844;4.396;2023-03-21T13:51:53;17.10;99.90
23160;DHT22;11748;50.844;4.396;2023-03-21T13:57:05;17.00;99.90
23160;DHT22;11748;50.844;4.396;2023-03-21T14:04:51;16.90;99.90
23160;DHT22;11748;50.844;4.396;2023-03-21T14:07:40;16.50;99.90
23160;DHT22;11748;50.844;4.396;2023-03-21T14:10:21;16.30;99.90
23160;DHT22;11748;50.844;4.396;2023-03-21T14:12:48;16.00;99.90
23160;DHT22;11748;50.844;4.396;2023-03-21T14:15:23;15.90;99.90
23160;DHT22;11748;50.844;4.396;2023-03-21T14:17:55;15.90;99.90
23160;DHT22;11748;50.844;4.396;2023-03-21T14:20:41;15.90;99.90
23160;DHT22;11748;50.844;4.396;2023-03-21T14:23:13;15.80;99.90
23160;DHT22;11748;50.844;4.396;2023-03-21T14:25:40;15.60;99.90
23160;DHT22;11748;50.844;4.396;2023-03-21T14:28:16;15.50;99.90
23160;DHT22;11748;50.844;4.396;2023-03-21T14:30:43;15.40;99.90
23160;DHT22;11748;50.844;4.396;2023-03-21T14:33:49;15.40;99.90
23160;DHT22;11748;50.844;4.396;2023-03-21T14:36:28;15.30;99.90
23160;DHT22;11748;50.844;4.396;2023-03-21T14:39:02;15.30;99.90
23160;DHT22;11748;50.844;4.396;2023-03-21T14:41:30;15.30;99.90
23160;DHT22;11748;50.844;4.396;2023-03-21T14:46:36;15.20;99.90
23160;DHT22;11748;50.844;4.396;2023-03-21T14:51:44;15.40;99.90
23160;DHT22;11748;50.844;4.396;2023-03-21T14:54:15;15.30;99.90
23160;DHT22;11748;50.844;4.396;2023-03-21T14:56:45;15.40;99.90
23160;DHT22;11748;50.844;4.396;2023-03-21T14:59:16;15.20;99.90
23160;DHT22;11748;50.844;4.396;2023-03-21T15:01:45;15.30;99.90
23160;DHT22;11748;50.844;4.396;2023-03-21T15:04:13;15.30;99.90
23160;DHT22;11748;50.844;4.396;2023-03-21T15:06:57;15.20;99.90
23160;DHT22;11748;50.844;4.396;2023-03-21T15:09:26;15.20;99.90
23160;DHT22;11748;50.844;4.396;2023-03-21T15:11:53;15.20;99.90
23160;DHT22;11748;50.844;4.396;2023-03-21T15:14:30;15.50;99.90
23160;DHT22;11748;50.844;4.396;2023-03-21T15:16:57;15.30;99.90
23160;DHT22;11748;50.844;4.396;2023-03-21T15:19:30;15.20;99.90
23160;DHT22;11748;50.844;4.396;2023-03-21T15:22:23;15.10;99.90
23160;DHT22;11748;50.844;4.396;2023-03-21T15:24:52;15.20;99.90
23160;DHT22;11748;50.844;4.396;2023-03-21T15:27:23;15.10;99.90
23160;DHT22;11748;50.844;4.396;2023-03-21T15:29:51;15.10;99.90
23160;DHT22;11748;50.844;4.396;2023-03-21T15:32:24;15.10;99.90
23160;DHT22;11748;50.844;4.396;2023-03-21T15:34:53;15.30;99.90
23160;DHT22;11748;50.844;4.396;2023-03-21T15:37:24;15.20;99.90
23160;DHT22;11748;50.844;4.396;2023-03-21T15:39:52;15.00;99.90
23160;DHT22;11748;50.844;4.396;2023-03-21T15:44:53;14.60;99.90
23160;DHT22;11748;50.844;4.396;2023-03-21T15:47:47;14.50;99.90
23160;DHT22;11748;50.844;4.396;2023-03-21T15:50:39;14.50;99.90
23160;DHT22;11748;50.844;4.396;2023-03-21T15:53:12;14.40;99.90
23160;DHT22;11748;50.844;4.396;2023-03-21T15:55:45;14.40;99.90
23160;DHT22;11748;50.844;4.396;2023-03-21T15:58:19;14.40;99.90
23160;DHT22;11748;50.844;4.396;2023-03-21T16:00:50;14.40;99.90
23160;DHT22;11748;50.844;4.396;2023-03-21T16:03:29;14.40;99.90
23160;DHT22;11748;50.844;4.396;2023-03-21T16:08:52;14.10;99.90
23160;DHT22;11748;50.844;4.396;2023-03-21T16:11:36;14.20;99.90
23160;DHT22;11748;50.844;4.396;2023-03-21T16:14:02;14.30;99.90
23160;DHT22;11748;50.844;4.396;2023-03-21T16:16:29;14.20;99.90
23160;DHT22;11748;50.844;4.396;2023-03-21T16:18:57;14.20;99.90
23160;DHT22;11748;50.844;4.396;2023-03-21T16:21:29;14.20;99.90
23160;DHT22;11748;50.844;4.396;2023-03-21T16:23:55;14.20;99.90
23160;DHT22;11748;50.844;4.396;2023-03-21T16:26:25;14.30;99.90
23160;DHT22;11748;50.844;4.396;2023-03-21T16:28:52;14.50;99.90
23160;DHT22;11748;50.844;4.396;2023-03-21T16:31:23;14.80;99.90
23160;DHT22;11748;50.844;4.396;2023-03-21T16:33:50;14.90;99.90
23160;DHT22;11748;50.844;4.396;2023-03-21T16:36:36;15.10;99.90
23160;DHT22;11748;50.844;4.396;2023-03-21T16:39:21;15.30;99.90
23160;DHT22;11748;50.844;4.396;2023-03-21T16:41:47;15.40;99.90
23160;DHT22;11748;50.844;4.396;2023-03-21T16:44:16;15.30;99.90
23160;DHT22;11748;50.844;4.396;2023-03-21T16:46:42;14.90;99.90
23160;DHT22;11748;50.844;4.396;2023-03-21T16:49:17;15.10;99.90
23160;DHT22;11748;50.844;4.396;2023-03-21T16:51:43;15.30;99.90
23160;DHT22;11748;50.844;4.396;2023-03-21T16:54:09;15.30;99.90
23160;DHT22;11748;50.844;4.396;2023-03-21T16:56:46;15.40;99.90
23160;DHT22;11748;50.844;4.396;2023-03-21T16:59:14;15.40;99.90
23160;DHT22;11748;50.844;4.396;2023-03-21T17:01:40;15.30;99.90
23160;DHT22;11748;50.844;4.396;2023-03-21T17:04:11;15.20;99.90
23160;DHT22;11748;50.844;4.396;2023-03-21T17:06:48;15.20;99.90
23160;DHT22;11748;50.844;4.396;2023-03-21T17:09:16;15.00;99.90
23160;DHT22;11748;50.844;4.396;2023-03-21T17:11:42;15.00;99.90
23160;DHT22;11748;50.844;4.396;2023-03-21T17:14:10;15.00;99.90
23160;DHT22;11748;50.844;4.396;2023-03-21T17:16:36;15.00;99.90
23160;DHT22;11748;50.844;4.396;2023-03-21T17:19:25;14.90;99.90
23160;DHT22;11748;50.844;4.396;2023-03-21T17:21:52;15.10;99.90
23160;DHT22;11748;50.844;4.396;2023-03-21T17:24:19;15.20;99.90
23160;DHT22;11748;50.844;4.396;2023-03-21T17:26:45;15.00;99.90
23160;DHT22;11748;50.844;4.396;2023-03-21T17:29:14;15.00;99.90
23160;DHT22;11748;50.844;4.396;2023-03-21T17:31:40;14.90;99.90
23160;DHT22;11748;50.844;4.396;2023-03-21T17:34:05;14.80;99.90
23160;DHT22;11748;50.844;4.396;2023-03-21T17:36:34;15.00;99.90
23160;DHT22;11748;50.844;4.396;2023-03-21T17:39:00;14.90;99.90